createdAt,value
2022-08-09T00:00:54.450Z,61.97
2022-08-09T00:09:18.072Z,62.43
2022-08-09T00:18:07.683Z,62.87
2022-08-09T00:26:32.703Z,62.86
2022-08-09T00:34:56.694Z,62.81
2022-08-09T00:44:14.737Z,63.13
2022-08-09T00:52:17.226Z,63.45
2022-08-09T01:00:43.851Z,63.22
2022-08-09T01:09:44.764Z,63.22
2022-08-09T01:18:30.171Z,63.22
2022-08-09T01:27:02.428Z,63.05
2022-08-09T01:35:38.356Z,63.08
2022-08-09T01:44:05.090Z,63.05
2022-08-09T01:52:28.335Z,62.79
2022-08-09T02:00:56.474Z,62.81
2022-08-09T02:09:20.747Z,63.07
2022-08-09T02:18:00.272Z,63.03
2022-08-09T02:26:34.578Z,63.02
2022-08-09T02:35:17.357Z,63.04
2022-08-09T02:43:53.967Z,63.03
2022-08-09T02:52:20.782Z,63.11
2022-08-09T03:00:57.575Z,63.44
2022-08-09T03:09:23.097Z,63.50
2022-08-09T03:17:57.999Z,63.38
2022-08-09T03:26:29.373Z,63.51
2022-08-09T03:34:57.302Z,63.52
2022-08-09T03:43:23.437Z,63.84
2022-08-09T03:51:58.639Z,64.41
2022-08-09T04:00:22.469Z,64.79
2022-08-09T04:08:46.551Z,65.24
2022-08-09T04:17:09.832Z,65.09
2022-08-09T04:25:32.970Z,65.55
2022-08-09T04:33:59.434Z,65.26
2022-08-09T04:42:23.678Z,64.44
2022-08-09T04:50:50.079Z,64.47
2022-08-09T04:59:15.643Z,64.73
2022-08-09T05:07:38.772Z,64.88
2022-08-09T05:16:03.247Z,65.04
2022-08-09T05:24:26.660Z,65.31
2022-08-09T05:32:53.389Z,66.06
2022-08-09T05:41:16.318Z,65.64
2022-08-09T05:50:28.137Z,66.25
2022-08-09T05:58:24.256Z,65.62
2022-08-09T06:06:49.832Z,64.23
2022-08-09T06:15:13.181Z,64.14
2022-08-09T06:23:57.777Z,63.14
2022-08-09T06:32:59.929Z,62.08
2022-08-09T06:41:02.008Z,62.06
2022-08-09T06:49:44.943Z,62.22
2022-08-09T06:58:28.505Z,61.68
2022-08-09T07:06:53.480Z,61.05
2022-08-09T07:16:35.059Z,60.39
2022-08-09T07:23:59.930Z,60.37
2022-08-09T07:32:23.023Z,60.73
2022-08-09T07:41:11.575Z,59.91
2022-08-09T07:49:36.037Z,58.63
2022-08-09T07:58:21.494Z,57.83
2022-08-09T08:06:55.709Z,58.01
2022-08-09T08:15:23.226Z,56.83
2022-08-09T08:23:55.930Z,55.71
2022-08-09T08:32:28.722Z,55.59
2022-08-09T08:40:55.856Z,55.10
2022-08-09T08:49:19.550Z,54.32
2022-08-09T08:57:43.057Z,54.54
2022-08-09T09:06:20.162Z,54.50
2022-08-09T09:14:44.568Z,53.84
2022-08-09T09:23:07.838Z,54.10
2022-08-09T09:32:03.279Z,53.96
2022-08-09T09:40:20.035Z,52.83
2022-08-09T09:48:57.673Z,52.98
2022-08-09T09:58:02.866Z,52.73
2022-08-09T10:06:07.299Z,52.18
2022-08-09T10:14:33.817Z,51.95
2022-08-09T10:23:01.049Z,51.52
2022-08-09T10:32:27.909Z,51.62
2022-08-09T10:40:11.949Z,51.27
2022-08-09T10:49:21.627Z,51.04
2022-08-09T10:57:44.626Z,51.42
2022-08-09T11:06:19.157Z,51.05
2022-08-09T11:15:01.486Z,50.42
2022-08-09T11:23:30.101Z,50.26
2022-08-09T11:31:55.018Z,50.09
2022-08-09T11:40:38.272Z,50.02
2022-08-09T11:49:05.336Z,50.29
2022-08-09T11:57:59.811Z,50.55
2022-08-09T12:06:24.869Z,49.73
2022-08-09T12:15:07.970Z,48.91
2022-08-09T12:23:56.324Z,47.91
2022-08-09T12:32:16.834Z,48.17
2022-08-09T12:40:47.896Z,49.09
2022-08-09T12:49:15.665Z,48.56
2022-08-09T12:57:46.602Z,48.10
2022-08-09T13:06:15.952Z,47.71
2022-08-09T13:14:44.151Z,47.95
2022-08-09T13:24:17.507Z,47.67
2022-08-09T13:32:15.070Z,47.06
2022-08-09T13:41:54.073Z,47.36
2022-08-09T13:49:37.891Z,47.64
2022-08-09T13:58:03.096Z,47.26
2022-08-09T14:06:31.998Z,47.62
2022-08-09T14:14:59.507Z,47.44
2022-08-09T14:23:41.006Z,48.07
2022-08-09T14:32:11.415Z,47.92
2022-08-09T14:41:00.860Z,48.16
2022-08-09T14:49:23.554Z,48.90
2022-08-09T14:57:47.745Z,49.45
2022-08-09T15:06:15.578Z,50.08
2022-08-09T15:14:39.233Z,50.10
2022-08-09T15:24:00.707Z,51.11
2022-08-09T15:31:54.163Z,51.73
2022-08-09T15:40:21.875Z,51.69
2022-08-09T15:49:07.906Z,52.33
2022-08-09T15:57:44.484Z,52.27
2022-08-09T16:06:31.414Z,52.30
2022-08-09T16:14:57.433Z,52.19
2022-08-09T16:23:22.969Z,52.67
2022-08-09T16:32:19.750Z,52.99
2022-08-09T16:40:40.570Z,52.18
2022-08-09T16:49:18.647Z,51.39
2022-08-09T16:58:08.842Z,51.19
2022-08-09T17:07:07.375Z,50.80
2022-08-09T17:15:31.134Z,50.86
2022-08-09T17:24:27.489Z,51.03
2022-08-09T17:32:48.003Z,51.13
2022-08-09T17:41:10.877Z,51.15
2022-08-09T17:49:50.739Z,51.32
2022-08-09T17:58:22.315Z,51.66
2022-08-09T18:06:54.890Z,51.59
2022-08-09T18:15:19.837Z,51.87
2022-08-09T18:24:09.602Z,52.27
2022-08-09T18:32:36.328Z,52.69
2022-08-09T18:41:01.327Z,52.85
2022-08-09T18:49:24.227Z,53.11
2022-08-09T18:57:47.250Z,53.35
2022-08-09T19:06:14.534Z,53.79
2022-08-09T19:14:38.168Z,54.21
2022-08-09T19:23:03.061Z,54.73
2022-08-09T19:31:44.891Z,55.04
2022-08-09T19:40:13.797Z,55.69
2022-08-09T19:49:02.603Z,56.33
2022-08-09T19:57:26.546Z,56.85
2022-08-09T20:05:50.628Z,57.30
2022-08-09T20:14:16.689Z,57.73
2022-08-09T20:22:46.639Z,58.12
2022-08-09T20:31:13.634Z,58.39
2022-08-09T20:40:17.563Z,58.38
2022-08-09T20:48:21.517Z,58.61
2022-08-09T20:56:49.665Z,58.93
2022-08-09T21:05:51.968Z,59.30
2022-08-09T21:14:00.794Z,60.17
2022-08-09T21:22:38.469Z,60.46
2022-08-09T21:31:17.533Z,60.75
2022-08-09T21:39:45.587Z,60.81
2022-08-09T21:48:13.775Z,61.01
2022-08-09T21:56:44.596Z,60.92
2022-08-09T22:05:22.465Z,61.54
2022-08-09T22:13:46.548Z,61.84
2022-08-09T22:22:09.440Z,62.08
2022-08-09T22:30:34.053Z,62.18
2022-08-09T22:38:58.498Z,62.42
2022-08-09T22:48:18.805Z,62.46
2022-08-09T22:56:31.398Z,62.74
2022-08-09T23:04:53.630Z,63.10
2022-08-09T23:13:17.564Z,63.03
2022-08-09T23:21:41.431Z,63.56
2022-08-09T23:30:07.622Z,63.91
2022-08-09T23:38:30.689Z,64.14
2022-08-09T23:46:57.507Z,64.18
2022-08-09T23:55:21.407Z,64.26
